Kapaa, Hawaii
Current Conditions -  °F | °C
As of 5:53 AM on Saturday 20 Dec 2014 (Local Time) from PHLI Reporting Station
Scattered Clouds Scattered Clouds  
Wind Chill: 69°   Ceiling: Unl
Heat Index: 69°   Visibility: 10mi
Dew Point: 64°   Wind: 5mph
Humidity: 84%   Direction: 240°WSW
Pressure: 30.02"   Gusts: NA
Location:  22.08°N, 159.31°W
Report Text: PHLI 201553Z 24004KT 10SM SCT031 SCT037 21/18 A3002 RMK AO2 SLP163 T02060178
Loading
Personal Weather Stations






























Interactive Weather Map New forecast layout! Learn more

10-Day Weather Forecast

Advertisements
Track Severe Weather on mobile